sensor_id;sensor_type;location;lat;lon;timestamp;pressure;altitude;pressure_sealevel;temperature;humidity
53758;BME280;39674;59.860;30.672;2022-07-04T00:02:25;101333.56;;;17.80;76.04
53758;BME280;39674;59.860;30.672;2022-07-04T00:04:55;101339.88;;;17.79;76.56
53758;BME280;39674;59.860;30.672;2022-07-04T00:07:46;101402.22;;;18.17;76.24
53758;BME280;39674;59.860;30.672;2022-07-04T00:10:19;101362.94;;;17.80;76.55
53758;BME280;39674;59.860;30.672;2022-07-04T00:12:50;101405.28;;;17.99;76.99
53758;BME280;39674;59.860;30.672;2022-07-04T00:15:19;101409.88;;;17.97;76.81
53758;BME280;39674;59.860;30.672;2022-07-04T00:17:51;101390.41;;;17.95;77.64
53758;BME280;39674;59.860;30.672;2022-07-04T00:20:22;101360.91;;;17.84;76.76
53758;BME280;39674;59.860;30.672;2022-07-04T00:22:55;101340.94;;;17.76;76.84
53758;BME280;39674;59.860;30.672;2022-07-04T00:28:09;101399.28;;;17.83;77.19
53758;BME280;39674;59.860;30.672;2022-07-04T00:30:41;101288.81;;;17.08;77.37
53758;BME280;39674;59.860;30.672;2022-07-04T00:33:14;101367.38;;;17.42;78.41
53758;BME280;39674;59.860;30.672;2022-07-04T00:35:56;101378.47;;;17.36;79.08
53758;BME280;39674;59.860;30.672;2022-07-04T00:38:35;101364.84;;;17.28;78.59
53758;BME280;39674;59.860;30.672;2022-07-04T00:41:07;101364.16;;;17.11;79.07
53758;BME280;39674;59.860;30.672;2022-07-04T00:44:03;101338.19;;;16.88;79.25
53758;BME280;39674;59.860;30.672;2022-07-04T00:46:34;101417.13;;;17.17;79.78
53758;BME280;39674;59.860;30.672;2022-07-04T00:49:22;101362.63;;;16.81;80.04
53758;BME280;39674;59.860;30.672;2022-07-04T00:52:05;101327.91;;;16.56;79.97
53758;BME280;39674;59.860;30.672;2022-07-04T00:54:38;101340.09;;;16.73;79.37
53758;BME280;39674;59.860;30.672;2022-07-04T00:57:08;101364.88;;;16.88;79.26
53758;BME280;39674;59.860;30.672;2022-07-04T00:59:41;101372.25;;;16.97;80.12
53758;BME280;39674;59.860;30.672;2022-07-04T01:02:16;101308.69;;;16.50;80.04
53758;BME280;39674;59.860;30.672;2022-07-04T01:04:49;101381.84;;;16.87;79.77
53758;BME280;39674;59.860;30.672;2022-07-04T01:07:20;101425.22;;;17.03;80.26
53758;BME280;39674;59.860;30.672;2022-07-04T01:09:54;101352.44;;;16.61;79.71
53758;BME280;39674;59.860;30.672;2022-07-04T01:12:27;101352.44;;;16.61;79.60
53758;BME280;39674;59.860;30.672;2022-07-04T01:14:59;101391.31;;;16.78;79.79
53758;BME280;39674;59.860;30.672;2022-07-04T01:17:32;101433.22;;;17.03;80.84
53758;BME280;39674;59.860;30.672;2022-07-04T01:20:01;101375.31;;;16.78;79.71
53758;BME280;39674;59.860;30.672;2022-07-04T01:22:34;101419.78;;;17.05;80.45
53758;BME280;39674;59.860;30.672;2022-07-04T01:25:15;101428.00;;;17.02;80.35
53758;BME280;39674;59.860;30.672;2022-07-04T01:27:47;101432.53;;;16.87;80.56
53758;BME280;39674;59.860;30.672;2022-07-04T01:30:20;101331.06;;;16.20;80.38
53758;BME280;39674;59.860;30.672;2022-07-04T01:32:58;101438.91;;;16.84;80.37
53758;BME280;39674;59.860;30.672;2022-07-04T01:35:33;101430.44;;;16.77;80.92
53758;BME280;39674;59.860;30.672;2022-07-04T01:38:03;101437.09;;;16.84;80.33
53758;BME280;39674;59.860;30.672;2022-07-04T01:40:41;101395.50;;;16.55;81.06
53758;BME280;39674;59.860;30.672;2022-07-04T01:43:17;101377.09;;;16.37;81.63
53758;BME280;39674;59.860;30.672;2022-07-04T01:45:50;101380.19;;;16.31;81.98
53758;BME280;39674;59.860;30.672;2022-07-04T01:48:21;101340.63;;;16.10;82.52
53758;BME280;39674;59.860;30.672;2022-07-04T01:50:55;101395.03;;;16.48;82.67
53758;BME280;39674;59.860;30.672;2022-07-04T01:53:29;101394.38;;;16.44;82.76
53758;BME280;39674;59.860;30.672;2022-07-04T01:56:05;101387.16;;;16.46;82.21
53758;BME280;39674;59.860;30.672;2022-07-04T01:58:39;101427.25;;;16.72;81.87
53758;BME280;39674;59.860;30.672;2022-07-04T02:01:16;101395.09;;;16.61;81.56
53758;BME280;39674;59.860;30.672;2022-07-04T02:04:11;101360.50;;;16.46;80.92
53758;BME280;39674;59.860;30.672;2022-07-04T02:06:40;101396.59;;;16.65;81.29
53758;BME280;39674;59.860;30.672;2022-07-04T02:09:13;101386.84;;;16.51;81.44
53758;BME280;39674;59.860;30.672;2022-07-04T02:11:56;101396.28;;;16.57;81.68
53758;BME280;39674;59.860;30.672;2022-07-04T02:14:45;101349.53;;;16.24;82.37
53758;BME280;39674;59.860;30.672;2022-07-04T02:17:22;101391.16;;;16.39;83.03
53758;BME280;39674;59.860;30.672;2022-07-04T02:20:01;101313.25;;;15.94;82.70
53758;BME280;39674;59.860;30.672;2022-07-04T02:22:43;101399.94;;;16.41;82.79
53758;BME280;39674;59.860;30.672;2022-07-04T02:25:34;101394.00;;;16.50;82.59
53758;BME280;39674;59.860;30.672;2022-07-04T02:28:09;101348.88;;;16.20;82.19
53758;BME280;39674;59.860;30.672;2022-07-04T02:30:44;101374.78;;;16.45;81.89
53758;BME280;39674;59.860;30.672;2022-07-04T02:33:20;101446.16;;;16.82;81.89
53758;BME280;39674;59.860;30.672;2022-07-04T02:35:56;101388.28;;;16.57;81.80
53758;BME280;39674;59.860;30.672;2022-07-04T02:38:29;101388.94;;;16.60;81.76
53758;BME280;39674;59.860;30.672;2022-07-04T02:41:13;101385.50;;;16.71;80.98
53758;BME280;39674;59.860;30.672;2022-07-04T02:44:04;101389.16;;;16.70;81.21
53758;BME280;39674;59.860;30.672;2022-07-04T02:47:01;101404.34;;;16.82;80.81
53758;BME280;39674;59.860;30.672;2022-07-04T02:49:37;101314.56;;;16.28;81.25
53758;BME280;39674;59.860;30.672;2022-07-04T02:52:17;101378.88;;;16.64;81.49
53758;BME280;39674;59.860;30.672;2022-07-04T02:55:09;101428.53;;;16.94;81.50
53758;BME280;39674;59.860;30.672;2022-07-04T02:57:46;101385.50;;;16.71;81.43
53758;BME280;39674;59.860;30.672;2022-07-04T03:00:26;101359.00;;;16.55;81.64
53758;BME280;39674;59.860;30.672;2022-07-04T03:03:14;101381.72;;;16.75;81.62
53758;BME280;39674;59.860;30.672;2022-07-04T03:05:50;101315.69;;;16.51;80.92
53758;BME280;39674;59.860;30.672;2022-07-04T03:08:29;101375.69;;;16.99;79.91
53758;BME280;39674;59.860;30.672;2022-07-04T03:11:17;101359.56;;;17.00;80.11
53758;BME280;39674;59.860;30.672;2022-07-04T03:13:59;101429.88;;;17.53;78.93
53758;BME280;39674;59.860;30.672;2022-07-04T03:16:36;101324.97;;;16.86;80.24
53758;BME280;39674;59.860;30.672;2022-07-04T03:19:14;101404.47;;;17.34;80.55
53758;BME280;39674;59.860;30.672;2022-07-04T03:21:51;101379.34;;;17.24;80.14
53758;BME280;39674;59.860;30.672;2022-07-04T03:24:28;101334.38;;;16.92;80.43
53758;BME280;39674;59.860;30.672;2022-07-04T03:27:15;101328.31;;;17.03;79.91
53758;BME280;39674;59.860;30.672;2022-07-04T03:30:05;101324.56;;;17.05;79.69
53758;BME280;39674;59.860;30.672;2022-07-04T03:33:00;101370.03;;;17.42;80.08
53758;BME280;39674;59.860;30.672;2022-07-04T03:35:45;101324.88;;;17.26;79.47
53758;BME280;39674;59.860;30.672;2022-07-04T03:38:26;101328.94;;;17.32;79.40
53758;BME280;39674;59.860;30.672;2022-07-04T03:41:23;101397.34;;;17.85;78.94
53758;BME280;39674;59.860;30.672;2022-07-04T03:44:29;101369.81;;;17.71;78.73
53758;BME280;39674;59.860;30.672;2022-07-04T03:50:58;101311.94;;;17.59;78.60
53758;BME280;39674;59.860;30.672;2022-07-04T03:54:09;101421.81;;;18.41;78.47
53758;BME280;39674;59.860;30.672;2022-07-04T04:00:44;101306.06;;;17.91;78.80
53758;BME280;39674;59.860;30.672;2022-07-04T04:11:30;101383.63;;;18.64;78.14
53758;BME280;39674;59.860;30.672;2022-07-04T04:14:11;101394.28;;;18.76;77.58
53758;BME280;39674;59.860;30.672;2022-07-04T04:17:06;101417.28;;;19.03;78.11
53758;BME280;39674;59.860;30.672;2022-07-04T04:24:27;101340.66;;;18.89;76.25
53758;BME280;39674;59.860;30.672;2022-07-04T04:31:39;101377.28;;;19.70;73.59
53758;BME280;39674;59.860;30.672;2022-07-04T04:34:46;101306.31;;;19.30;73.16
53758;BME280;39674;59.860;30.672;2022-07-04T04:39:23;101318.50;;;19.57;72.92
53758;BME280;39674;59.860;30.672;2022-07-04T04:41:40;101406.28;;;20.10;71.80
53758;BME280;39674;59.860;30.672;2022-07-04T04:44:45;101363.19;;;19.91;72.56
53758;BME280;39674;59.860;30.672;2022-07-04T04:47:47;101357.44;;;19.95;72.00
53758;BME280;39674;59.860;30.672;2022-07-04T04:51:03;101310.91;;;19.85;71.40
53758;BME280;39674;59.860;30.672;2022-07-04T04:55:07;101403.63;;;20.43;71.01
53758;BME280;39674;59.860;30.672;2022-07-04T05:02:45;101295.38;;;20.11;69.99
53758;BME280;39674;59.860;30.672;2022-07-04T05:17:42;101300.34;;;21.12;68.40
53758;BME280;39674;59.860;30.672;2022-07-04T05:21:27;101381.28;;;21.80;67.50
53758;BME280;39674;59.860;30.672;2022-07-04T05:28:06;101287.28;;;21.69;65.01
53758;BME280;39674;59.860;30.672;2022-07-04T05:31:37;101330.91;;;22.02;64.07
53758;BME280;39674;59.860;30.672;2022-07-04T05:34:52;101273.75;;;22.10;64.67
53758;BME280;39674;59.860;30.672;2022-07-04T05:38:16;101295.28;;;22.59;62.46
53758;BME280;39674;59.860;30.672;2022-07-04T05:41:37;101273.13;;;22.85;61.41
53758;BME280;39674;59.860;30.672;2022-07-04T05:46:04;101272.63;;;23.09;60.83
53758;BME280;39674;59.860;30.672;2022-07-04T06:01:31;101316.69;;;23.83;57.55
53758;BME280;39674;59.860;30.672;2022-07-04T06:04:39;101273.44;;;23.57;57.55
53758;BME280;39674;59.860;30.672;2022-07-04T06:16:53;101300.72;;;24.36;55.40
53758;BME280;39674;59.860;30.672;2022-07-04T06:19:42;101384.47;;;24.80;54.57
53758;BME280;39674;59.860;30.672;2022-07-04T06:30:43;101335.66;;;25.00;53.15
53758;BME280;39674;59.860;30.672;2022-07-04T06:48:21;101272.25;;;26.23;46.64
53758;BME280;39674;59.860;30.672;2022-07-04T06:51:43;101283.03;;;26.56;47.09
53758;BME280;39674;59.860;30.672;2022-07-04T06:59:02;101266.13;;;26.87;46.52
53758;BME280;39674;59.860;30.672;2022-07-04T07:05:31;101263.72;;;26.92;45.39
53758;BME280;39674;59.860;30.672;2022-07-04T07:05:58;101304.63;;;27.22;46.52
53758;BME280;39674;59.860;30.672;2022-07-04T07:08:49;101292.84;;;26.90;45.47
53758;BME280;39674;59.860;30.672;2022-07-04T07:11:57;101320.84;;;27.38;45.13
53758;BME280;39674;59.860;30.672;2022-07-04T07:14:57;101316.66;;;27.67;44.54
53758;BME280;39674;59.860;30.672;2022-07-04T07:21:47;101303.19;;;27.51;44.79
53758;BME280;39674;59.860;30.672;2022-07-04T07:29:11;101308.47;;;27.44;42.86
53758;BME280;39674;59.860;30.672;2022-07-04T07:39:44;101348.31;;;27.44;43.67
53758;BME280;39674;59.860;30.672;2022-07-04T07:42:37;101339.19;;;27.76;43.16
53758;BME280;39674;59.860;30.672;2022-07-04T07:45:57;101251.84;;;27.49;41.76
53758;BME280;39674;59.860;30.672;2022-07-04T07:48:31;101336.97;;;28.34;42.48
53758;BME280;39674;59.860;30.672;2022-07-04T07:51:20;101258.66;;;28.23;41.82
53758;BME280;39674;59.860;30.672;2022-07-04T07:54:08;101280.91;;;28.57;41.70
53758;BME280;39674;59.860;30.672;2022-07-04T07:56:54;101257.94;;;28.82;39.93
53758;BME280;39674;59.860;30.672;2022-07-04T07:59:48;101287.25;;;29.17;39.47
53758;BME280;39674;59.860;30.672;2022-07-04T08:02:22;101279.94;;;28.73;38.46
53758;BME280;39674;59.860;30.672;2022-07-04T08:05:52;101290.53;;;28.44;39.49
53758;BME280;39674;59.860;30.672;2022-07-04T08:09:03;101280.38;;;28.61;39.40
53758;BME280;39674;59.860;30.672;2022-07-04T08:12:37;101290.56;;;28.59;39.36
53758;BME280;39674;59.860;30.672;2022-07-04T08:17:01;101240.69;;;27.91;40.13
53758;BME280;39674;59.860;30.672;2022-07-04T08:41:17;101229.97;;;27.97;38.15
53758;BME280;39674;59.860;30.672;2022-07-04T08:43:53;101258.09;;;28.28;36.77
53758;BME280;39674;59.860;30.672;2022-07-04T08:51:42;101207.06;;;28.38;38.05
53758;BME280;39674;59.860;30.672;2022-07-04T08:57:47;101224.31;;;30.15;35.49
53758;BME280;39674;59.860;30.672;2022-07-04T09:01:32;101247.13;;;30.57;35.24
53758;BME280;39674;59.860;30.672;2022-07-04T09:04:56;101216.56;;;30.40;34.25
53758;BME280;39674;59.860;30.672;2022-07-04T09:08:34;101244.34;;;30.86;32.68
53758;BME280;39674;59.860;30.672;2022-07-04T09:18:18;101218.91;;;29.35;35.66
53758;BME280;39674;59.860;30.672;2022-07-04T09:24:45;101197.84;;;30.02;35.28
53758;BME280;39674;59.860;30.672;2022-07-04T09:28:41;101179.34;;;29.54;34.25
53758;BME280;39674;59.860;30.672;2022-07-04T09:31:37;101169.22;;;29.11;35.34
53758;BME280;39674;59.860;30.672;2022-07-04T09:35:11;101213.72;;;29.25;35.41
53758;BME280;39674;59.860;30.672;2022-07-04T09:41:02;101163.28;;;29.81;34.63
53758;BME280;39674;59.860;30.672;2022-07-04T09:44:45;101240.81;;;30.85;33.85
53758;BME280;39674;59.860;30.672;2022-07-04T09:48:00;101218.25;;;30.70;32.18
53758;BME280;39674;59.860;30.672;2022-07-04T10:09:10;101162.91;;;31.11;33.44
53758;BME280;39674;59.860;30.672;2022-07-04T10:11:51;101167.63;;;30.96;34.33
53758;BME280;39674;59.860;30.672;2022-07-04T10:14:45;101215.78;;;31.10;34.81
53758;BME280;39674;59.860;30.672;2022-07-04T10:18:36;101147.16;;;31.13;33.92
53758;BME280;39674;59.860;30.672;2022-07-04T10:21:51;101245.00;;;31.85;33.85
53758;BME280;39674;59.860;30.672;2022-07-04T10:25:14;101204.47;;;32.02;33.22
53758;BME280;39674;59.860;30.672;2022-07-04T10:28:14;101200.25;;;31.93;33.17
53758;BME280;39674;59.860;30.672;2022-07-04T10:31:21;101226.06;;;32.84;33.84
53758;BME280;39674;59.860;30.672;2022-07-04T10:34:30;101136.91;;;32.56;32.52
53758;BME280;39674;59.860;30.672;2022-07-04T10:55:15;101104.25;;;30.45;34.38
53758;BME280;39674;59.860;30.672;2022-07-04T10:58:17;101123.91;;;30.34;33.58
53758;BME280;39674;59.860;30.672;2022-07-04T11:02:20;101118.91;;;30.44;33.82
53758;BME280;39674;59.860;30.672;2022-07-04T11:12:21;101208.03;;;31.96;33.20
53758;BME280;39674;59.860;30.672;2022-07-04T11:22:01;101176.09;;;32.16;34.43
53758;BME280;39674;59.860;30.672;2022-07-04T11:25:25;101192.25;;;31.84;33.02
53758;BME280;39674;59.860;30.672;2022-07-04T11:38:51;101098.53;;;31.37;33.75
53758;BME280;39674;59.860;30.672;2022-07-04T11:41:40;101175.25;;;31.82;34.66
53758;BME280;39674;59.860;30.672;2022-07-04T11:44:30;101200.25;;;31.93;33.27
53758;BME280;39674;59.860;30.672;2022-07-04T11:47:46;101141.56;;;31.48;33.46
53758;BME280;39674;59.860;30.672;2022-07-04T11:50:29;101186.16;;;31.89;34.17
53758;BME280;39674;59.860;30.672;2022-07-04T11:53:06;101189.09;;;31.94;33.97
53758;BME280;39674;59.860;30.672;2022-07-04T12:03:50;101105.72;;;30.89;34.12
53758;BME280;39674;59.860;30.672;2022-07-04T12:11:09;101099.53;;;30.25;35.71
53758;BME280;39674;59.860;30.672;2022-07-04T12:13:42;101103.69;;;30.21;35.96
53758;BME280;39674;59.860;30.672;2022-07-04T12:20:28;101144.00;;;30.33;37.40
53758;BME280;39674;59.860;30.672;2022-07-04T12:34:52;101120.28;;;29.98;39.44
53758;BME280;39674;59.860;30.672;2022-07-04T12:38:03;101162.53;;;30.44;39.74
53758;BME280;39674;59.860;30.672;2022-07-04T12:51:13;101071.91;;;29.72;41.84
53758;BME280;39674;59.860;30.672;2022-07-04T12:54:06;101122.97;;;29.91;41.12
53758;BME280;39674;59.860;30.672;2022-07-04T12:57:04;101107.94;;;29.74;41.95
53758;BME280;39674;59.860;30.672;2022-07-04T12:59:39;101046.53;;;29.00;41.92
53758;BME280;39674;59.860;30.672;2022-07-04T13:02:42;101110.38;;;29.25;42.52
53758;BME280;39674;59.860;30.672;2022-07-04T13:05:30;101119.09;;;29.36;42.45
53758;BME280;39674;59.860;30.672;2022-07-04T13:08:08;101075.44;;;29.44;41.21
53758;BME280;39674;59.860;30.672;2022-07-04T13:10:45;101086.31;;;29.44;42.04
53758;BME280;39674;59.860;30.672;2022-07-04T13:14:22;101123.41;;;29.73;41.19
53758;BME280;39674;59.860;30.672;2022-07-04T13:24:41;101019.63;;;28.53;42.79
53758;BME280;39674;59.860;30.672;2022-07-04T13:27:48;101102.72;;;29.14;43.19
53758;BME280;39674;59.860;30.672;2022-07-04T13:30:57;101015.28;;;28.74;42.42
53758;BME280;39674;59.860;30.672;2022-07-04T13:34:17;101026.91;;;29.04;42.10
53758;BME280;39674;59.860;30.672;2022-07-04T13:43:07;101012.88;;;29.22;41.18
53758;BME280;39674;59.860;30.672;2022-07-04T13:44:48;101070.88;;;29.51;42.05
53758;BME280;39674;59.860;30.672;2022-07-04T13:47:27;101015.06;;;28.90;42.58
53758;BME280;39674;59.860;30.672;2022-07-04T13:50:07;101114.78;;;29.26;42.97
53758;BME280;39674;59.860;30.672;2022-07-04T13:52:57;101114.59;;;29.28;43.45
53758;BME280;39674;59.860;30.672;2022-07-04T14:02:09;101101.41;;;28.88;44.72
53758;BME280;39674;59.860;30.672;2022-07-04T14:04:56;100999.16;;;28.21;44.19
53758;BME280;39674;59.860;30.672;2022-07-04T14:07:50;101059.81;;;28.58;44.76
53758;BME280;39674;59.860;30.672;2022-07-04T14:10:34;101050.69;;;28.65;45.09
53758;BME280;39674;59.860;30.672;2022-07-04T14:14:08;101043.88;;;28.55;44.94
53758;BME280;39674;59.860;30.672;2022-07-04T14:16:51;101046.63;;;28.70;44.29
53758;BME280;39674;59.860;30.672;2022-07-04T14:19:34;101060.84;;;28.72;44.41
53758;BME280;39674;59.860;30.672;2022-07-04T14:22:43;101002.69;;;28.51;43.81
53758;BME280;39674;59.860;30.672;2022-07-04T14:25:47;101034.78;;;28.62;44.66
53758;BME280;39674;59.860;30.672;2022-07-04T14:28:51;101063.91;;;28.84;44.17
53758;BME280;39674;59.860;30.672;2022-07-04T14:31:51;101003.16;;;28.40;43.99
53758;BME280;39674;59.860;30.672;2022-07-04T14:35:00;101038.53;;;28.61;43.75
53758;BME280;39674;59.860;30.672;2022-07-04T14:38:02;101068.88;;;28.65;44.56
53758;BME280;39674;59.860;30.672;2022-07-04T14:41:04;101013.56;;;28.36;43.70
53758;BME280;39674;59.860;30.672;2022-07-04T14:43:53;100982.41;;;28.17;43.74
53758;BME280;39674;59.860;30.672;2022-07-04T14:47:10;101024.53;;;28.43;44.21
53758;BME280;39674;59.860;30.672;2022-07-04T14:52:29;101060.06;;;28.78;44.31
53758;BME280;39674;59.860;30.672;2022-07-04T14:53:59;101018.69;;;28.46;43.87
53758;BME280;39674;59.860;30.672;2022-07-04T14:57:25;100959.16;;;27.99;44.09
53758;BME280;39674;59.860;30.672;2022-07-04T15:01:22;101009.75;;;28.15;44.39
53758;BME280;39674;59.860;30.672;2022-07-04T15:04:48;101046.25;;;28.43;44.87
53758;BME280;39674;59.860;30.672;2022-07-04T15:11:07;100975.84;;;27.96;44.84
53758;BME280;39674;59.860;30.672;2022-07-04T15:14:14;101045.78;;;28.09;44.05
53758;BME280;39674;59.860;30.672;2022-07-04T15:17:14;100984.41;;;27.55;45.55
53758;BME280;39674;59.860;30.672;2022-07-04T15:20:49;100977.50;;;27.67;44.77
53758;BME280;39674;59.860;30.672;2022-07-04T15:31:53;100964.84;;;27.06;45.62
53758;BME280;39674;59.860;30.672;2022-07-04T15:35:11;100938.13;;;26.95;45.10
53758;BME280;39674;59.860;30.672;2022-07-04T15:38:07;100968.31;;;26.92;45.81
53758;BME280;39674;59.860;30.672;2022-07-04T15:44:28;100992.75;;;27.07;46.54
53758;BME280;39674;59.860;30.672;2022-07-04T15:47:57;100944.38;;;26.81;46.30
53758;BME280;39674;59.860;30.672;2022-07-04T15:55:56;100928.31;;;26.71;46.25
53758;BME280;39674;59.860;30.672;2022-07-04T15:59:50;100973.38;;;26.95;46.35
53758;BME280;39674;59.860;30.672;2022-07-04T16:03:26;100934.63;;;26.63;46.20
53758;BME280;39674;59.860;30.672;2022-07-04T16:13:33;101042.63;;;27.21;46.25
53758;BME280;39674;59.860;30.672;2022-07-04T16:16:50;101004.31;;;26.69;46.54
53758;BME280;39674;59.860;30.672;2022-07-04T16:19:36;101026.28;;;26.83;46.96
53758;BME280;39674;59.860;30.672;2022-07-04T16:22:41;100999.69;;;26.55;47.33
53758;BME280;39674;59.860;30.672;2022-07-04T16:26:26;100992.22;;;26.57;46.66
53758;BME280;39674;59.860;30.672;2022-07-04T16:29:24;100983.81;;;26.43;46.73
53758;BME280;39674;59.860;30.672;2022-07-04T16:47:42;100965.25;;;26.32;48.40
53758;BME280;39674;59.860;30.672;2022-07-04T16:50:37;101003.53;;;26.61;48.12
53758;BME280;39674;59.860;30.672;2022-07-04T16:53:45;100964.56;;;26.38;48.34
53758;BME280;39674;59.860;30.672;2022-07-04T16:56:51;100979.44;;;26.42;48.21
53758;BME280;39674;59.860;30.672;2022-07-04T17:00:18;100996.63;;;26.58;48.20
53758;BME280;39674;59.860;30.672;2022-07-04T17:07:31;100976.59;;;26.36;48.48
53758;BME280;39674;59.860;30.672;2022-07-04T17:10:48;100935.59;;;25.99;49.83
53758;BME280;39674;59.860;30.672;2022-07-04T17:13:01;101000.78;;;26.37;48.89
53758;BME280;39674;59.860;30.672;2022-07-04T17:15:54;101010.25;;;26.41;47.97
53758;BME280;39674;59.860;30.672;2022-07-04T17:26:05;100989.22;;;26.12;49.33
53758;BME280;39674;59.860;30.672;2022-07-04T17:36:25;100919.16;;;25.69;49.68
53758;BME280;39674;59.860;30.672;2022-07-04T17:39:32;100981.78;;;25.98;49.84
53758;BME280;39674;59.860;30.672;2022-07-04T17:43:14;100933.31;;;25.71;50.23
53758;BME280;39674;59.860;30.672;2022-07-04T17:46:41;101000.22;;;26.02;50.40
53758;BME280;39674;59.860;30.672;2022-07-04T17:50:23;101030.63;;;26.04;51.43
53758;BME280;39674;59.860;30.672;2022-07-04T17:52:52;100964.44;;;25.67;50.62
53758;BME280;39674;59.860;30.672;2022-07-04T17:55:43;100912.78;;;25.29;53.26
53758;BME280;39674;59.860;30.672;2022-07-04T17:58:22;100996.56;;;25.70;53.17
53758;BME280;39674;59.860;30.672;2022-07-04T18:01:49;100992.84;;;25.71;52.33
53758;BME280;39674;59.860;30.672;2022-07-04T18:04:37;101025.97;;;25.82;53.23
53758;BME280;39674;59.860;30.672;2022-07-04T18:07:16;100997.63;;;25.44;54.33
53758;BME280;39674;59.860;30.672;2022-07-04T18:11:38;101013.50;;;25.47;53.91
53758;BME280;39674;59.860;30.672;2022-07-04T18:14:02;101027.50;;;25.43;53.19
53758;BME280;39674;59.860;30.672;2022-07-04T18:16:59;101002.81;;;25.05;53.97
53758;BME280;39674;59.860;30.672;2022-07-04T18:23:03;101045.88;;;25.14;55.06
53758;BME280;39674;59.860;30.672;2022-07-04T18:25:49;100999.25;;;24.96;55.32
53758;BME280;39674;59.860;30.672;2022-07-04T18:28:19;100936.34;;;24.44;55.24
53758;BME280;39674;59.860;30.672;2022-07-04T18:31:13;100932.13;;;24.42;56.07
53758;BME280;39674;59.860;30.672;2022-07-04T18:33:54;100988.34;;;24.63;57.18
53758;BME280;39674;59.860;30.672;2022-07-04T18:36:31;101028.28;;;24.94;56.54
53758;BME280;39674;59.860;30.672;2022-07-04T18:39:06;101029.97;;;24.78;58.14
53758;BME280;39674;59.860;30.672;2022-07-04T18:41:36;100987.94;;;24.41;58.29
53758;BME280;39674;59.860;30.672;2022-07-04T18:44:42;100997.28;;;24.55;57.61
53758;BME280;39674;59.860;30.672;2022-07-04T18:50:09;100991.63;;;24.32;58.87
53758;BME280;39674;59.860;30.672;2022-07-04T18:52:58;101026.53;;;24.68;57.35
53758;BME280;39674;59.860;30.672;2022-07-04T18:55:51;100954.75;;;24.06;58.95
53758;BME280;39674;59.860;30.672;2022-07-04T18:58:34;101011.00;;;24.27;59.62
53758;BME280;39674;59.860;30.672;2022-07-04T19:04:17;100920.09;;;23.32;60.08
53758;BME280;39674;59.860;30.672;2022-07-04T19:07:07;100950.59;;;23.33;61.68
53758;BME280;39674;59.860;30.672;2022-07-04T19:09:59;100905.50;;;22.99;61.80
53758;BME280;39674;59.860;30.672;2022-07-04T19:12:37;100914.66;;;23.06;61.09
53758;BME280;39674;59.860;30.672;2022-07-04T19:15:30;100950.94;;;23.38;60.46
53758;BME280;39674;59.860;30.672;2022-07-04T19:18:22;101027.72;;;23.78;60.64
53758;BME280;39674;59.860;30.672;2022-07-04T19:21:00;100989.69;;;23.37;61.70
53758;BME280;39674;59.860;30.672;2022-07-04T19:23:52;101031.50;;;23.41;62.68
53758;BME280;39674;59.860;30.672;2022-07-04T19:26:33;101035.91;;;23.24;63.37
53758;BME280;39674;59.860;30.672;2022-07-04T19:29:12;101000.91;;;22.96;62.53
53758;BME280;39674;59.860;30.672;2022-07-04T19:32:05;101003.78;;;22.95;62.44
53758;BME280;39674;59.860;30.672;2022-07-04T19:34:50;101041.78;;;22.91;63.76
53758;BME280;39674;59.860;30.672;2022-07-04T19:37:24;101046.88;;;22.95;63.31
53758;BME280;39674;59.860;30.672;2022-07-04T19:40:01;100982.19;;;22.58;63.07
53758;BME280;39674;59.860;30.672;2022-07-04T19:42:54;100992.81;;;22.78;63.53
53758;BME280;39674;59.860;30.672;2022-07-04T19:45:28;101051.16;;;22.87;63.41
53758;BME280;39674;59.860;30.672;2022-07-04T19:48:15;100998.03;;;22.62;63.79
53758;BME280;39674;59.860;30.672;2022-07-04T19:50:45;100997.09;;;22.53;63.28
53758;BME280;39674;59.860;30.672;2022-07-04T19:53:21;100961.75;;;22.10;65.01
53758;BME280;39674;59.860;30.672;2022-07-04T19:55:54;100995.09;;;22.27;63.75
53758;BME280;39674;59.860;30.672;2022-07-04T19:58:48;100997.66;;;22.19;65.18
53758;BME280;39674;59.860;30.672;2022-07-04T20:01:29;100993.97;;;22.20;64.63
53758;BME280;39674;59.860;30.672;2022-07-04T20:04:11;100962.34;;;22.04;64.07
53758;BME280;39674;59.860;30.672;2022-07-04T20:06:56;101026.50;;;22.26;65.51
53758;BME280;39674;59.860;30.672;2022-07-04T20:09:42;100976.84;;;21.83;66.53
53758;BME280;39674;59.860;30.672;2022-07-04T20:12:16;100996.94;;;21.89;65.48
53758;BME280;39674;59.860;30.672;2022-07-04T20:14:45;100972.91;;;21.68;66.78
53758;BME280;39674;59.860;30.672;2022-07-04T20:17:25;100972.34;;;21.74;66.30
53758;BME280;39674;59.860;30.672;2022-07-04T20:20:06;101022.34;;;22.04;65.87
53758;BME280;39674;59.860;30.672;2022-07-04T20:22:44;100946.38;;;21.45;66.93
53758;BME280;39674;59.860;30.672;2022-07-04T20:25:30;101017.34;;;21.72;67.26
53758;BME280;39674;59.860;30.672;2022-07-04T20:28:09;100949.75;;;21.27;67.79
53758;BME280;39674;59.860;30.672;2022-07-04T20:30:40;101002.66;;;21.56;66.88
53758;BME280;39674;59.860;30.672;2022-07-04T20:33:18;101012.56;;;21.66;67.86
53758;BME280;39674;59.860;30.672;2022-07-04T20:35:58;100974.38;;;21.32;68.01
53758;BME280;39674;59.860;30.672;2022-07-04T20:38:42;100943.88;;;21.14;68.38
53758;BME280;39674;59.860;30.672;2022-07-04T20:41:37;100949.94;;;21.16;67.56
53758;BME280;39674;59.860;30.672;2022-07-04T20:44:15;100956.84;;;21.28;68.02